Time;durP1;ratioP1;P1;durP2;ratioP2;P2;SDS_P1;SDS_P2;PMS_P1;PMS_P2;Temp;Humidity;BMP_temperature;BMP_pressure;BME280_temperature;BME280_humidity;BME280_pressure;Samples;Min_cycle;Max_cycle;Signal;HPM_P1;HPM_P2
2022/06/04 00:01:47;;;;;;;4.70;3.10;;;16.00;74.30;;;;;;5013225;28;20954;-60
2022/06/04 00:04:16;;;;;;;3.07;2.87;;;16.00;74.50;;;;;;5013155;28;21004;-60
2022/06/04 00:06:44;;;;;;;5.20;2.93;;;16.00;74.70;;;;;;5013419;28;20513;-61
2022/06/04 00:09:13;;;;;;;3.43;3.00;;;15.90;74.90;;;;;;5014391;28;20528;-60
2022/06/04 00:17:29;;;;;;;3.37;2.57;;;15.80;75.40;;;;;;4972486;28;20491;-61
2022/06/04 00:19:56;;;;;;;3.40;3.10;;;15.70;75.50;;;;;;4971722;28;20469;-60
2022/06/04 00:22:23;;;;;;;4.03;2.90;;;15.70;75.50;;;;;;4990068;28;20478;-61
2022/06/04 00:24:50;;;;;;;2.73;2.53;;;15.60;75.50;;;;;;5014074;28;20474;-61
2022/06/04 00:27:21;;;;;;;3.10;2.80;;;15.60;75.70;;;;;;5017338;28;20442;-60
2022/06/04 00:29:50;;;;;;;2.80;2.60;;;15.60;75.90;;;;;;5016917;28;20497;-60
2022/06/04 00:32:19;;;;;;;4.07;2.90;;;15.50;75.90;;;;;;5016986;28;20448;-61
2022/06/04 00:34:46;;;;;;;3.80;2.93;;;15.50;76.10;;;;;;5017230;28;20505;-60
2022/06/04 00:37:14;;;;;;;3.83;2.80;;;15.40;76.10;;;;;;5017182;28;20548;-62
2022/06/04 00:39:43;;;;;;;2.53;2.33;;;15.40;76.20;;;;;;5016839;28;20497;-60
2022/06/04 00:42:13;;;;;;;3.17;2.87;;;15.40;76.40;;;;;;5016749;28;20477;-61
2022/06/04 00:45:14;;;;;;;3.03;2.53;;;15.30;76.40;;;;;;5016687;28;20441;-60
2022/06/04 00:47:42;;;;;;;6.47;2.63;;;15.30;76.40;;;;;;5017192;28;20426;-60
2022/06/04 00:50:11;;;;;;;3.40;2.87;;;15.20;76.50;;;;;;5016511;28;20454;-60
2022/06/04 00:52:38;;;;;;;2.33;2.20;;;15.20;76.50;;;;;;5016883;28;20449;-60
2022/06/04 00:55:08;;;;;;;3.57;2.40;;;15.10;77.10;;;;;;5016828;28;20486;-60
2022/06/04 00:58:14;;;;;;;4.37;2.60;;;15.10;76.50;;;;;;5016591;28;20895;-60
2022/06/04 01:00:46;;;;;;;3.00;2.20;;;15.00;76.40;;;;;;4956329;29;20846;-60
2022/06/04 01:03:30;;;;;;;3.63;3.10;;;15.00;76.30;;;;;;4956333;29;20463;-60
2022/06/04 01:06:21;;;;;;;4.20;2.60;;;14.90;76.10;;;;;;4994439;28;20446;-60
2022/06/04 01:09:03;;;;;;;3.00;2.70;;;14.90;76.00;;;;;;5016627;28;20838;-60
2022/06/04 01:14:36;;;;;;;2.93;2.33;;;14.80;75.80;;;;;;5016185;28;20462;-61
2022/06/04 01:17:12;;;;;;;3.70;2.33;;;14.70;75.60;;;;;;5016837;28;20438;-60
2022/06/04 01:19:56;;;;;;;4.27;2.33;;;14.70;75.30;;;;;;5016736;28;20504;-60
2022/06/04 01:22:49;;;;;;;6.10;4.20;;;14.70;75.10;;;;;;5016299;28;20489;-60
2022/06/04 01:25:38;;;;;;;3.70;2.30;;;14.70;75.00;;;;;;5016458;28;20426;-60
2022/06/04 01:28:09;;;;;;;3.30;2.70;;;14.60;74.80;;;;;;5016611;28;20446;-60
2022/06/04 01:30:42;;;;;;;3.00;2.70;;;14.60;74.80;;;;;;5016513;28;20489;-60
2022/06/04 01:33:13;;;;;;;3.57;2.73;;;14.60;75.10;;;;;;5016162;28;20435;-60
2022/06/04 01:35:47;;;;;;;3.03;2.30;;;14.50;75.10;;;;;;5016443;28;20501;-60
2022/06/04 01:38:18;;;;;;;2.67;2.47;;;14.50;75.20;;;;;;5015537;28;20441;-61
2022/06/04 01:41:03;;;;;;;4.00;2.60;;;14.50;75.30;;;;;;5016185;28;20966;-61
2022/06/04 01:43:34;;;;;;;2.73;2.53;;;14.50;75.40;;;;;;5016373;28;20513;-60
2022/06/04 01:46:07;;;;;;;3.30;2.67;;;14.40;75.40;;;;;;5015797;28;20457;-60
2022/06/04 01:48:39;;;;;;;2.50;2.30;;;14.40;75.50;;;;;;5019046;28;20553;-61
2022/06/04 01:51:08;;;;;;;2.90;2.63;;;14.30;75.50;;;;;;5030221;28;20449;-61
2022/06/04 01:53:39;;;;;;;2.63;2.43;;;14.30;75.60;;;;;;5030099;28;20442;-60
2022/06/04 01:56:11;;;;;;;4.23;2.40;;;14.30;75.50;;;;;;5025953;28;20880;-60
2022/06/04 01:58:47;;;;;;;3.90;2.90;;;14.20;75.40;;;;;;5023969;28;20532;-60
2022/06/04 02:01:17;;;;;;;2.30;2.10;;;14.20;75.50;;;;;;5022199;28;20426;-60
2022/06/04 02:03:51;;;;;;;3.70;2.60;;;14.20;75.60;;;;;;5020126;28;20445;-60
2022/06/04 02:06:22;;;;;;;3.60;2.67;;;14.10;76.20;;;;;;5019888;28;20438;-62
2022/06/04 02:08:55;;;;;;;2.57;2.20;;;14.10;75.60;;;;;;5019619;28;20475;-60
2022/06/04 02:11:24;;;;;;;5.47;2.17;;;14.10;75.70;;;;;;5017418;28;20435;-60
2022/06/04 02:13:55;;;;;;;2.93;2.63;;;14.00;75.60;;;;;;5016095;28;20934;-60
2022/06/04 02:16:28;;;;;;;2.70;2.50;;;14.00;75.70;;;;;;5015885;28;20538;-60
2022/06/04 02:18:58;;;;;;;3.87;2.90;;;13.90;75.70;;;;;;5015925;28;20513;-61
2022/06/04 02:21:26;;;;;;;2.80;2.37;;;13.90;75.80;;;;;;5015289;28;20478;-61
2022/06/04 02:23:53;;;;;;;3.10;2.83;;;13.90;76.10;;;;;;5015744;28;20450;-60
2022/06/04 02:26:21;;;;;;;3.10;2.63;;;13.80;76.20;;;;;;5015519;28;20446;-60
2022/06/04 02:28:48;;;;;;;2.43;2.23;;;13.80;76.40;;;;;;5014952;28;20560;-61
2022/06/04 02:31:25;;;;;;;3.20;2.90;;;13.70;76.50;;;;;;5015070;28;20450;-60
2022/06/04 02:33:59;;;;;;;2.83;2.50;;;13.70;76.80;;;;;;5015242;28;20745;-60
2022/06/04 02:36:34;;;;;;;3.43;2.63;;;13.60;77.00;;;;;;5015012;28;20425;-60
2022/06/04 02:39:09;;;;;;;2.43;2.23;;;13.60;77.30;;;;;;5015115;28;20474;-61
2022/06/04 02:41:42;;;;;;;2.97;2.77;;;13.50;77.40;;;;;;5014682;28;20438;-60
2022/06/04 02:44:16;;;;;;;3.80;2.83;;;13.50;77.60;;;;;;5014632;28;20488;-61
2022/06/04 02:46:51;;;;;;;3.07;2.87;;;13.40;77.80;;;;;;5014771;28;20434;-60
2022/06/04 02:49:25;;;;;;;3.43;2.70;;;13.40;78.10;;;;;;5013630;28;21012;-61
2022/06/04 02:51:55;;;;;;;2.97;2.70;;;13.40;78.30;;;;;;5014626;28;20803;-60
2022/06/04 02:54:26;;;;;;;2.70;2.50;;;13.30;78.50;;;;;;5014920;28;20452;-60
2022/06/04 02:56:56;;;;;;;3.23;2.93;;;13.30;78.60;;;;;;5014399;28;20427;-61
2022/06/04 02:59:26;;;;;;;3.73;3.13;;;13.30;78.80;;;;;;5014253;28;20470;-60
2022/06/04 03:01:59;;;;;;;3.03;2.20;;;13.30;78.90;;;;;;5014223;28;20907;-60
2022/06/04 03:04:26;;;;;;;2.63;2.43;;;13.20;79.00;;;;;;5014676;28;20484;-60
2022/06/04 03:06:54;;;;;;;2.53;2.30;;;13.20;79.10;;;;;;5014638;28;20482;-60
2022/06/04 03:09:23;;;;;;;2.80;2.63;;;13.20;79.30;;;;;;5014409;28;20548;-59
2022/06/04 03:11:51;;;;;;;3.43;2.70;;;13.20;79.40;;;;;;5014305;28;20446;-60
2022/06/04 03:14:20;;;;;;;3.30;2.60;;;13.10;79.50;;;;;;5014555;28;20450;-60
2022/06/04 03:16:49;;;;;;;3.17;2.87;;;13.10;79.80;;;;;;5014071;28;20441;-60
2022/06/04 03:19:18;;;;;;;3.40;3.10;;;13.10;80.10;;;;;;5014207;28;20466;-60
2022/06/04 03:21:45;;;;;;;3.37;3.07;;;13.10;80.30;;;;;;5013881;28;20552;-61
2022/06/04 03:24:14;;;;;;;3.80;2.50;;;13.00;80.50;;;;;;5013868;28;20482;-61
2022/06/04 03:26:42;;;;;;;4.30;2.70;;;13.00;80.70;;;;;;5013979;28;21012;-60
2022/06/04 03:29:10;;;;;;;4.90;3.00;;;13.00;81.00;;;;;;5014077;28;20520;-60
2022/06/04 03:31:37;;;;;;;3.07;2.77;;;13.00;81.10;;;;;;5013611;28;20454;-61
2022/06/04 03:34:05;;;;;;;4.00;2.80;;;13.00;81.20;;;;;;5013903;28;20481;-60
2022/06/04 03:36:34;;;;;;;6.50;2.73;;;13.00;81.10;;;;;;5013607;28;20492;-61
2022/06/04 03:39:02;;;;;;;3.70;3.30;;;13.00;81.10;;;;;;5013831;28;20494;-60
2022/06/04 03:41:30;;;;;;;3.13;2.90;;;13.00;81.10;;;;;;5013559;28;20534;-61
2022/06/04 03:43:57;;;;;;;3.87;2.80;;;13.10;81.10;;;;;;5013659;28;20541;-60
2022/06/04 03:46:26;;;;;;;3.07;2.40;;;13.10;80.80;;;;;;5013370;28;20454;-60
2022/06/04 03:48:54;;;;;;;4.40;3.10;;;13.10;80.50;;;;;;5013555;28;20517;-59
2022/06/04 03:51:22;;;;;;;4.87;2.80;;;13.20;80.20;;;;;;5013522;28;20462;-61
2022/06/04 03:53:50;;;;;;;2.77;2.50;;;13.20;79.80;;;;;;5013916;28;20442;-61
2022/06/04 03:56:18;;;;;;;3.03;2.63;;;13.30;79.20;;;;;;5013371;28;20585;-62
2022/06/04 03:58:46;;;;;;;3.10;2.90;;;13.50;78.50;;;;;;5013188;28;20497;-57
2022/06/04 04:01:14;;;;;;;3.60;2.87;;;13.90;77.90;;;;;;5013084;28;20473;-63
2022/06/04 04:03:42;;;;;;;2.70;2.40;;;14.30;75.00;;;;;;5032178;28;20491;-61
2022/06/04 04:06:13;;;;;;;2.30;2.10;;;14.50;72.50;;;;;;5032529;28;20445;-60
2022/06/04 04:09:52;;;;;;;4.10;2.40;;;15.00;68.50;;;;;;5111309;27;20636;-61
2022/06/04 04:12:19;;;;;;;2.90;2.43;;;15.30;66.50;;;;;;5106026;28;20462;-62
2022/06/04 04:14:46;;;;;;;4.30;2.60;;;15.50;65.00;;;;;;5090563;28;20973;-59
2022/06/04 04:17:14;;;;;;;2.57;2.37;;;15.60;63.30;;;;;;5091288;28;20508;-61
2022/06/04 04:19:41;;;;;;;2.70;2.50;;;15.50;62.40;;;;;;5090369;28;20954;-61
2022/06/04 04:22:08;;;;;;;2.40;2.20;;;15.40;62.30;;;;;;5090352;28;20517;-61
2022/06/04 04:24:35;;;;;;;2.90;2.70;;;15.20;62.10;;;;;;5110925;28;20491;-61
2022/06/04 04:27:05;;;;;;;4.67;2.20;;;15.00;62.30;;;;;;5110617;28;20514;-60
2022/06/04 04:29:32;;;;;;;3.00;2.40;;;14.90;62.70;;;;;;5110039;28;20609;-60
2022/06/04 04:31:59;;;;;;;2.80;2.30;;;14.70;62.80;;;;;;5109961;28;20495;-61
2022/06/04 04:34:27;;;;;;;3.43;2.80;;;14.60;63.20;;;;;;5104405;28;20486;-61
2022/06/04 04:36:54;;;;;;;3.10;2.80;;;14.60;63.40;;;;;;5097825;28;20940;-60
2022/06/04 04:39:21;;;;;;;3.43;2.30;;;14.70;63.20;;;;;;5108758;28;20539;-60
2022/06/04 04:41:48;;;;;;;4.43;2.23;;;14.70;62.70;;;;;;5097694;28;20560;-61
2022/06/04 04:44:17;;;;;;;2.40;2.20;;;14.80;62.40;;;;;;5098487;28;20494;-61
2022/06/04 04:46:45;;;;;;;3.30;2.70;;;14.90;61.90;;;;;;5089902;28;21007;-61
2022/06/04 04:49:12;;;;;;;2.97;2.67;;;15.00;61.80;;;;;;5095628;28;21028;-61
2022/06/04 04:51:39;;;;;;;2.63;2.43;;;15.00;61.50;;;;;;5095909;28;20492;-62
2022/06/04 04:54:07;;;;;;;2.70;2.47;;;15.20;61.20;;;;;;5113068;28;20485;-62
2022/06/04 04:56:34;;;;;;;4.93;3.27;;;15.30;60.80;;;;;;5118000;28;20469;-61
2022/06/04 04:59:01;;;;;;;2.67;2.47;;;15.50;60.20;;;;;;5100436;28;20535;-62
2022/06/04 05:01:30;;;;;;;3.17;2.83;;;15.60;59.70;;;;;;5113319;28;20461;-60
2022/06/04 05:03:57;;;;;;;2.90;2.70;;;15.80;59.50;;;;;;5096399;28;20516;-61
2022/06/04 05:06:25;;;;;;;3.43;2.73;;;16.00;58.90;;;;;;5100077;28;20549;-61
2022/06/04 05:08:53;;;;;;;2.70;2.50;;;16.30;58.00;;;;;;5101191;28;20543;-60
2022/06/04 05:11:24;;;;;;;2.87;2.63;;;16.50;57.30;;;;;;5110487;28;20446;-61
2022/06/04 05:13:51;;;;;;;5.20;2.30;;;16.70;56.50;;;;;;5101750;28;20461;-61
2022/06/04 05:16:20;;;;;;;2.83;2.63;;;16.90;55.80;;;;;;5108274;28;20514;-61
2022/06/04 05:18:49;;;;;;;2.97;2.40;;;17.10;55.00;;;;;;5098454;28;20536;-60
2022/06/04 05:21:22;;;;;;;2.40;2.20;;;17.20;54.70;;;;;;5075072;28;20463;-61
2022/06/04 05:23:50;;;;;;;2.70;2.47;;;17.40;54.30;;;;;;5082556;28;20455;-60
2022/06/04 05:26:18;;;;;;;2.83;2.60;;;17.70;53.80;;;;;;5096263;28;20522;-60
2022/06/04 05:28:45;;;;;;;2.27;2.07;;;18.00;53.00;;;;;;5091080;28;20514;-61
2022/06/04 05:31:13;;;;;;;2.97;2.60;;;18.10;52.50;;;;;;5076301;28;20458;-60
2022/06/04 05:33:41;;;;;;;2.37;2.17;;;18.00;52.00;;;;;;5087170;28;20458;-60
2022/06/04 05:36:09;;;;;;;3.23;2.33;;;17.90;52.00;;;;;;5075851;28;20857;-60
2022/06/04 05:38:37;;;;;;;2.97;2.10;;;17.60;52.10;;;;;;5090587;28;20451;-60
2022/06/04 05:41:07;;;;;;;3.23;2.57;;;17.40;52.70;;;;;;5075429;28;20455;-60
2022/06/04 05:43:34;;;;;;;4.50;2.40;;;17.30;52.90;;;;;;5075182;28;20463;-62
2022/06/04 05:46:04;;;;;;;3.20;2.47;;;17.40;52.90;;;;;;5090612;28;20996;-60
2022/06/04 05:48:31;;;;;;;2.87;2.00;;;17.50;52.70;;;;;;5088177;28;20842;-60
2022/06/04 05:50:59;;;;;;;2.60;2.40;;;17.50;52.50;;;;;;5083410;28;20459;-60
2022/06/04 05:53:28;;;;;;;3.80;2.50;;;17.40;52.30;;;;;;5087917;28;20463;-60
2022/06/04 05:55:56;;;;;;;2.67;2.40;;;17.30;52.40;;;;;;5093991;28;20545;-59
2022/06/04 05:58:23;;;;;;;5.00;2.70;;;17.20;52.70;;;;;;5076808;28;20483;-60
2022/06/04 06:00:58;;;;;;;2.97;2.40;;;17.10;52.90;;;;;;5094328;28;20516;-60
2022/06/04 06:03:25;;;;;;;2.60;2.40;;;17.10;53.00;;;;;;5086854;28;20886;-61
2022/06/04 06:05:52;;;;;;;2.43;2.10;;;17.00;53.10;;;;;;5074805;28;20513;-61
2022/06/04 06:08:20;;;;;;;2.73;2.30;;;17.00;53.20;;;;;;5077686;28;20514;-60
2022/06/04 06:10:48;;;;;;;3.03;2.03;;;17.10;53.30;;;;;;5083301;22;20496;-59
2022/06/04 06:13:16;;;;;;;2.57;2.37;;;17.10;53.10;;;;;;5051826;28;20573;-59
2022/06/04 06:15:43;;;;;;;2.80;2.60;;;17.00;53.10;;;;;;5052798;28;20514;-59
2022/06/04 06:18:11;;;;;;;2.90;2.23;;;16.90;53.30;;;;;;5052811;28;20975;-59
2022/06/04 06:20:43;;;;;;;2.73;2.20;;;16.80;53.40;;;;;;5041553;28;20543;-59
2022/06/04 06:23:11;;;;;;;2.40;2.20;;;16.70;53.50;;;;;;5033097;28;20457;-59
2022/06/04 06:25:38;;;;;;;3.67;2.50;;;16.70;53.60;;;;;;5033943;28;20499;-59
2022/06/04 06:28:07;;;;;;;3.30;2.40;;;16.80;53.50;;;;;;5033873;28;20836;-59
2022/06/04 06:30:36;;;;;;;4.30;2.40;;;17.00;53.30;;;;;;5032368;28;20477;-59
2022/06/04 06:33:04;;;;;;;3.30;2.40;;;17.10;53.00;;;;;;5032800;28;20469;-60
2022/06/04 06:35:31;;;;;;;3.93;2.40;;;17.20;52.80;;;;;;5029771;28;20544;-59
2022/06/04 06:37:58;;;;;;;3.70;2.43;;;17.20;52.70;;;;;;5034189;28;20790;-59
2022/06/04 06:40:26;;;;;;;2.90;2.70;;;17.30;52.80;;;;;;5034208;28;20465;-59
2022/06/04 06:42:53;;;;;;;2.47;2.27;;;17.30;52.80;;;;;;5034294;28;20453;-59
2022/06/04 06:45:22;;;;;;;3.77;2.70;;;17.40;52.70;;;;;;5034538;28;20484;-59
2022/06/04 06:47:49;;;;;;;2.97;2.67;;;17.50;52.50;;;;;;5034481;28;20441;-58
2022/06/04 06:50:17;;;;;;;2.60;2.20;;;17.50;52.40;;;;;;5033817;28;20492;-59
2022/06/04 06:52:45;;;;;;;2.50;2.30;;;17.50;52.50;;;;;;5035166;28;20945;-59
2022/06/04 06:55:12;;;;;;;2.90;2.33;;;17.50;52.40;;;;;;5035000;28;20495;-58
2022/06/04 06:57:40;;;;;;;2.37;2.17;;;17.70;52.30;;;;;;5034712;28;20986;-59
2022/06/04 07:00:08;;;;;;;4.33;2.83;;;17.80;52.00;;;;;;5034207;28;20488;-59
2022/06/04 07:02:37;;;;;;;2.57;2.37;;;18.00;51.50;;;;;;5033494;28;20457;-60
2022/06/04 07:05:05;;;;;;;5.73;2.10;;;18.10;51.30;;;;;;5034901;28;20503;-61
2022/06/04 07:07:32;;;;;;;2.53;2.30;;;18.20;51.30;;;;;;5031621;28;20849;-59
2022/06/04 07:10:00;;;;;;;5.53;3.03;;;18.20;51.20;;;;;;5031099;28;20564;-58
2022/06/04 07:12:27;;;;;;;3.20;2.30;;;18.30;51.10;;;;;;5019882;28;20488;-58
2022/06/04 07:14:55;;;;;;;3.40;2.40;;;18.30;51.00;;;;;;5028453;28;20488;-59
2022/06/04 07:17:32;;;;;;;2.53;2.33;;;18.30;50.70;;;;;;5034820;28;20477;-60
2022/06/04 07:20:00;;;;;;;2.47;2.00;;;18.40;50.30;;;;;;5034238;28;20461;-60
2022/06/04 07:22:28;;;;;;;2.73;2.07;;;18.50;49.90;;;;;;5034358;28;21102;-60
2022/06/04 07:24:57;;;;;;;2.40;2.20;;;18.60;49.60;;;;;;5032502;28;20456;-60
2022/06/04 07:27:24;;;;;;;5.17;3.80;;;18.70;49.60;;;;;;5031741;28;20507;-60
2022/06/04 07:29:52;;;;;;;2.57;2.37;;;18.80;49.40;;;;;;5031564;28;21037;-60
2022/06/04 07:32:19;;;;;;;2.90;2.70;;;18.90;49.10;;;;;;5033495;28;20444;-57
2022/06/04 07:34:46;;;;;;;2.20;2.00;;;19.00;49.00;;;;;;5033439;28;20464;-59
2022/06/04 07:37:16;;;;;;;2.47;2.27;;;19.00;48.80;;;;;;5032077;28;20492;-58
2022/06/04 07:39:43;;;;;;;3.20;2.90;;;19.10;48.90;;;;;;5031851;28;20476;-59
2022/06/04 07:42:10;;;;;;;2.70;2.07;;;19.20;48.80;;;;;;5034124;28;20441;-59
2022/06/04 07:44:38;;;;;;;2.27;2.00;;;19.30;48.40;;;;;;5034375;28;20792;-58
2022/06/04 07:47:05;;;;;;;2.50;2.27;;;19.30;48.20;;;;;;5034578;28;20484;-61
2022/06/04 07:49:34;;;;;;;2.30;2.10;;;19.40;48.30;;;;;;5032484;28;20489;-59
2022/06/04 07:52:01;;;;;;;2.20;2.00;;;19.50;48.20;;;;;;5033374;28;20453;-59
2022/06/04 07:54:31;;;;;;;5.67;1.97;;;19.50;48.20;;;;;;5033385;28;20451;-59
2022/06/04 07:56:58;;;;;;;2.73;2.50;;;19.60;48.20;;;;;;5033500;28;20940;-59
2022/06/04 07:59:26;;;;;;;2.53;2.23;;;19.70;48.00;;;;;;5033761;28;20449;-59
2022/06/04 08:01:54;;;;;;;2.27;2.07;;;19.70;47.60;;;;;;5033165;28;20452;-59
2022/06/04 08:04:21;;;;;;;2.90;2.00;;;19.80;47.20;;;;;;5031898;28;20495;-60
2022/06/04 08:06:49;;;;;;;3.10;2.10;;;19.80;46.90;;;;;;5032799;28;20455;-59
2022/06/04 08:09:16;;;;;;;3.07;2.03;;;19.80;46.80;;;;;;5033032;28;20477;-59
2022/06/04 08:11:45;;;;;;;2.00;1.80;;;20.00;46.80;;;;;;5032315;28;20516;-59
2022/06/04 08:14:16;;;;;;;2.40;2.20;;;20.20;46.70;;;;;;5032924;28;20450;-59
2022/06/04 08:16:46;;;;;;;2.60;1.90;;;20.30;46.40;;;;;;5031683;28;20883;-59
2022/06/04 08:19:13;;;;;;;2.40;1.80;;;20.40;46.30;;;;;;5033086;28;20933;-59
2022/06/04 08:21:42;;;;;;;2.43;2.20;;;20.60;46.20;;;;;;5033287;28;20454;-59
2022/06/04 08:24:11;;;;;;;2.60;2.40;;;20.70;45.80;;;;;;5032171;28;20511;-59
2022/06/04 08:26:39;;;;;;;1.90;1.80;;;20.70;45.50;;;;;;5033081;28;20890;-58
2022/06/04 08:29:07;;;;;;;5.53;3.00;;;20.70;45.60;;;;;;5032705;28;20531;-57
2022/06/04 08:31:35;;;;;;;2.27;2.07;;;20.80;45.70;;;;;;5032739;28;20527;-58
2022/06/04 08:34:03;;;;;;;3.60;2.23;;;20.90;45.60;;;;;;5032955;28;20937;-58
2022/06/04 08:36:49;;;;;;;3.50;2.90;;;21.00;45.40;;;;;;5032870;28;20449;-58
2022/06/04 08:39:16;;;;;;;2.47;2.27;;;21.20;45.40;;;;;;5030291;28;20835;-58
2022/06/04 08:42:04;;;;;;;2.40;2.20;;;21.30;45.20;;;;;;5031895;28;20445;-58
2022/06/04 08:44:35;;;;;;;2.70;2.07;;;21.50;45.10;;;;;;5032489;28;20505;-58
2022/06/04 08:47:11;;;;;;;3.07;2.07;;;21.70;45.00;;;;;;5032767;28;20848;-58
2022/06/04 08:49:43;;;;;;;3.87;3.20;;;21.80;44.70;;;;;;5032356;28;20489;-58
2022/06/04 08:52:14;;;;;;;5.17;2.60;;;21.90;44.60;;;;;;5032763;28;20488;-58
2022/06/04 08:57:33;;;;;;;3.67;2.53;;;22.10;44.70;;;;;;5036556;28;20452;-58
2022/06/04 09:00:17;;;;;;;2.57;2.37;;;22.20;44.40;;;;;;5036394;28;20468;-58
2022/06/04 09:03:02;;;;;;;4.90;2.83;;;22.30;44.40;;;;;;5036069;28;20445;-59
2022/06/04 09:05:47;;;;;;;4.90;2.77;;;22.50;44.50;;;;;;5036124;28;20459;-58
2022/06/04 09:08:19;;;;;;;4.50;2.80;;;22.50;44.50;;;;;;5036430;28;20503;-58
2022/06/04 09:10:50;;;;;;;2.57;2.37;;;22.30;44.40;;;;;;5036563;28;20554;-58
2022/06/04 09:13:24;;;;;;;2.30;1.80;;;22.20;44.70;;;;;;5036385;28;20452;-57
2022/06/04 09:15:57;;;;;;;2.90;2.23;;;22.10;44.70;;;;;;5036754;28;20429;-58
2022/06/04 09:18:32;;;;;;;3.43;2.20;;;22.10;44.60;;;;;;5036669;28;20430;-58
2022/06/04 09:21:01;;;;;;;2.60;2.03;;;22.30;44.40;;;;;;5036297;28;20467;-59
2022/06/04 09:23:40;;;;;;;2.83;2.30;;;22.40;44.10;;;;;;5035814;28;20901;-59
2022/06/04 09:26:24;;;;;;;3.23;2.33;;;22.50;43.90;;;;;;5036064;28;20483;-58
2022/06/04 09:29:03;;;;;;;2.73;2.53;;;22.70;43.90;;;;;;5036171;28;20429;-58
2022/06/04 09:31:39;;;;;;;5.30;2.53;;;22.70;43.70;;;;;;5035655;28;20468;-59
2022/06/04 09:34:12;;;;;;;2.37;1.90;;;22.80;43.50;;;;;;5035948;28;20495;-59
2022/06/04 09:36:42;;;;;;;4.30;2.47;;;22.90;43.30;;;;;;5035389;28;20484;-59
2022/06/04 09:39:22;;;;;;;2.17;1.97;;;22.90;42.90;;;;;;5036310;28;20453;-59
2022/06/04 09:41:55;;;;;;;2.90;2.13;;;22.90;42.90;;;;;;5035312;28;20480;-59
2022/06/04 09:44:24;;;;;;;2.83;1.90;;;23.10;43.00;;;;;;5035773;28;20547;-58
2022/06/04 09:46:58;;;;;;;4.03;2.43;;;23.20;42.70;;;;;;5035280;28;20457;-58
2022/06/04 09:49:57;;;;;;;2.17;2.03;;;23.40;42.50;;;;;;5034876;28;20537;-57
2022/06/04 09:52:30;;;;;;;2.50;2.00;;;23.50;42.40;;;;;;5036266;28;20434;-58
2022/06/04 09:54:59;;;;;;;3.13;2.83;;;23.50;42.30;;;;;;5035525;28;20438;-58
2022/06/04 09:57:30;;;;;;;3.07;2.77;;;23.50;42.30;;;;;;5035477;28;20449;-58
2022/06/04 09:59:59;;;;;;;3.80;2.80;;;23.60;42.40;;;;;;5034874;28;20496;-58
2022/06/04 10:02:29;;;;;;;4.50;2.93;;;23.60;42.20;;;;;;5035032;28;20452;-59
2022/06/04 10:05:19;;;;;;;4.87;2.53;;;23.60;42.20;;;;;;5035024;28;20491;-58
2022/06/04 10:07:47;;;;;;;3.73;2.60;;;23.60;42.10;;;;;;5034997;28;20444;-58
2022/06/04 10:10:28;;;;;;;2.70;1.77;;;23.70;42.10;;;;;;5034779;28;20542;-58
2022/06/04 10:15:45;;;;;;;3.30;2.50;;;24.10;42.10;;;;;;5035081;28;20758;-59
2022/06/04 10:18:25;;;;;;;4.10;3.27;;;24.20;42.00;;;;;;5035153;28;20500;-59
2022/06/04 10:20:55;;;;;;;3.83;2.90;;;24.50;41.80;;;;;;5034553;28;20519;-59
2022/06/04 10:23:23;;;;;;;2.67;2.43;;;24.70;41.20;;;;;;5034964;28;20453;-59
2022/06/04 10:26:21;;;;;;;4.47;3.00;;;24.80;41.00;;;;;;5034881;28;20450;-58
2022/06/04 10:29:00;;;;;;;5.27;2.10;;;24.80;40.70;;;;;;4961768;28;20476;-59
2022/06/04 10:31:40;;;;;;;2.83;2.50;;;24.70;40.70;;;;;;5034595;28;20485;-59
2022/06/04 10:34:25;;;;;;;3.07;2.80;;;24.60;40.80;;;;;;5034673;28;20499;-59
2022/06/04 10:37:02;;;;;;;2.60;2.40;;;24.60;40.60;;;;;;5034373;28;20493;-58
2022/06/04 10:39:43;;;;;;;3.37;2.43;;;24.70;40.60;;;;;;5035262;28;20467;-58
2022/06/04 10:42:20;;;;;;;2.47;2.23;;;24.70;40.30;;;;;;5035011;28;20434;-58
2022/06/04 10:45:07;;;;;;;2.43;2.23;;;24.70;40.20;;;;;;5035490;28;20430;-58
2022/06/04 10:47:37;;;;;;;3.07;2.87;;;24.80;40.20;;;;;;5031112;28;20544;-58
2022/06/04 10:50:31;;;;;;;4.57;3.07;;;25.00;40.00;;;;;;5034045;28;21007;-58
2022/06/04 10:53:03;;;;;;;3.43;2.33;;;25.10;39.60;;;;;;5030969;28;20458;-58
2022/06/04 10:55:42;;;;;;;2.10;1.90;;;25.20;39.50;;;;;;5033933;28;20917;-57
2022/06/04 10:58:43;;;;;;;3.00;2.33;;;25.20;40.00;;;;;;5034182;28;20434;-57
2022/06/04 11:01:16;;;;;;;2.87;2.43;;;25.10;39.50;;;;;;5034028;28;20524;-57
2022/06/04 11:03:50;;;;;;;2.97;2.77;;;25.30;39.40;;;;;;5034233;28;20434;-58
2022/06/04 11:06:26;;;;;;;4.73;2.90;;;25.40;39.00;;;;;;5034135;28;20464;-59
2022/06/04 11:08:58;;;;;;;2.43;2.23;;;25.40;38.90;;;;;;5033489;28;20878;-59
2022/06/04 11:11:32;;;;;;;3.17;2.80;;;25.40;38.80;;;;;;5033274;28;20489;-58
2022/06/04 11:14:04;;;;;;;3.17;2.57;;;25.60;38.70;;;;;;5034003;28;20433;-60
2022/06/04 11:16:36;;;;;;;3.60;2.80;;;25.90;38.50;;;;;;5034298;28;20433;-59
2022/06/04 11:19:11;;;;;;;3.00;2.70;;;26.00;38.40;;;;;;5033494;28;20493;-57
2022/06/04 11:21:45;;;;;;;4.60;2.90;;;26.10;38.50;;;;;;5034040;28;20505;-58
2022/06/04 11:24:17;;;;;;;3.00;2.67;;;26.10;38.40;;;;;;5033896;28;20501;-58
2022/06/04 11:26:49;;;;;;;6.20;2.83;;;26.20;38.30;;;;;;5034001;28;20429;-57
2022/06/04 11:29:16;;;;;;;2.70;2.50;;;26.30;38.00;;;;;;5033484;28;20459;-57
2022/06/04 11:32:04;;;;;;;3.00;2.80;;;26.30;38.10;;;;;;5033223;28;20509;-56
2022/06/04 11:35:04;;;;;;;3.40;2.90;;;26.50;38.30;;;;;;5033631;28;20431;-56
2022/06/04 11:37:49;;;;;;;3.07;2.80;;;26.70;38.10;;;;;;5033277;28;20429;-58
2022/06/04 11:40:29;;;;;;;3.03;2.30;;;26.80;37.70;;;;;;5033266;28;20547;-56
2022/06/04 11:42:59;;;;;;;3.33;2.80;;;26.90;37.70;;;;;;5032649;28;20469;-56
2022/06/04 11:45:37;;;;;;;3.83;2.90;;;27.00;37.50;;;;;;5032688;28;20440;-57
2022/06/04 11:48:21;;;;;;;6.10;2.93;;;27.10;37.40;;;;;;5032732;28;20554;-57
2022/06/04 11:51:01;;;;;;;6.13;3.30;;;27.00;37.30;;;;;;5032781;28;20538;-57
2022/06/04 11:53:39;;;;;;;3.60;2.60;;;27.00;37.50;;;;;;5032830;28;20429;-57
2022/06/04 11:56:18;;;;;;;3.20;2.90;;;27.10;37.50;;;;;;5032622;28;20433;-57
2022/06/04 11:59:06;;;;;;;2.90;2.70;;;27.30;37.30;;;;;;5032556;28;20425;-57
2022/06/04 12:01:38;;;;;;;5.23;3.70;;;27.40;37.00;;;;;;5032864;28;20457;-57
2022/06/04 12:04:10;;;;;;;3.67;3.27;;;27.40;37.10;;;;;;5033113;28;20433;-58
2022/06/04 12:06:42;;;;;;;3.33;3.10;;;27.50;37.10;;;;;;5032558;28;20437;-58
2022/06/04 12:09:16;;;;;;;3.13;2.93;;;27.80;36.50;;;;;;5033047;28;20453;-58
2022/06/04 12:11:50;;;;;;;3.90;2.80;;;28.20;35.80;;;;;;5033028;28;20496;-58
2022/06/04 12:14:32;;;;;;;5.30;3.43;;;28.20;35.60;;;;;;5032569;28;20429;-56
2022/06/04 12:17:13;;;;;;;5.90;3.30;;;28.10;35.70;;;;;;5032918;28;20447;-58
2022/06/04 12:25:35;;;;;;;3.60;3.40;;;27.80;35.90;;;;;;5052994;28;20404;-63
2022/06/04 12:28:18;;;;;;;3.77;3.47;;;27.60;36.40;;;;;;5051373;28;20565;-60
2022/06/04 12:30:46;;;;;;;3.07;2.87;;;27.30;36.60;;;;;;5040693;28;20484;-59
2022/06/04 12:33:26;;;;;;;3.87;3.47;;;26.80;37.20;;;;;;5034953;28;20460;-61
2022/06/04 12:35:59;;;;;;;3.50;3.30;;;26.50;37.80;;;;;;5034647;28;20518;-60
2022/06/04 12:38:27;;;;;;;3.70;3.40;;;26.40;38.20;;;;;;5036638;28;20475;-60
2022/06/04 12:41:11;;;;;;;3.70;3.40;;;26.40;38.30;;;;;;5036348;28;20500;-60
2022/06/04 12:43:41;;;;;;;4.83;3.13;;;26.40;38.40;;;;;;5036309;28;20433;-61
2022/06/04 12:46:28;;;;;;;4.40;3.03;;;26.30;38.50;;;;;;5036043;28;20510;-60
2022/06/04 12:49:01;;;;;;;3.60;3.33;;;26.20;38.60;;;;;;5036416;28;20549;-61
2022/06/04 12:51:45;;;;;;;3.30;3.03;;;26.20;38.70;;;;;;5035267;28;20486;-60
2022/06/04 12:54:38;;;;;;;3.73;3.07;;;26.00;38.80;;;;;;5036239;28;20912;-60
2022/06/04 12:57:32;;;;;;;3.63;3.40;;;25.80;39.20;;;;;;5036271;28;20493;-61
2022/06/04 13:00:32;;;;;;;4.20;3.00;;;25.60;39.40;;;;;;5036453;28;20553;-60
2022/06/04 13:03:15;;;;;;;3.37;3.03;;;25.60;39.50;;;;;;5021276;28;20447;-60
2022/06/04 13:06:15;;;;;;;4.17;3.53;;;25.50;39.60;;;;;;5034870;28;20463;-59
2022/06/04 13:08:47;;;;;;;4.10;3.70;;;25.50;39.60;;;;;;5018024;28;21010;-60
2022/06/04 13:11:28;;;;;;;4.07;3.77;;;25.50;39.60;;;;;;5035516;28;20540;-60
2022/06/04 13:14:04;;;;;;;3.50;3.20;;;25.60;39.50;;;;;;5033614;28;20511;-60
2022/06/04 13:16:45;;;;;;;3.30;3.10;;;25.70;39.30;;;;;;5035945;28;20587;-60
2022/06/04 13:19:31;;;;;;;3.10;2.90;;;25.90;39.10;;;;;;5034945;28;20523;-60
2022/06/04 13:22:00;;;;;;;3.70;3.30;;;26.00;38.70;;;;;;5035664;28;20833;-61
2022/06/04 13:24:32;;;;;;;4.20;3.80;;;26.00;38.70;;;;;;5034355;28;20555;-61
2022/06/04 13:27:06;;;;;;;4.40;4.00;;;25.90;38.70;;;;;;5035902;28;20519;-60
2022/06/04 13:29:37;;;;;;;3.67;3.37;;;25.90;38.80;;;;;;5035578;28;20464;-60
2022/06/04 13:32:11;;;;;;;4.13;3.83;;;25.90;39.40;;;;;;5035734;28;20877;-60
2022/06/04 13:34:39;;;;;;;3.80;3.50;;;26.00;38.90;;;;;;5035597;28;20774;-60
2022/06/04 13:37:09;;;;;;;4.27;2.80;;;26.00;38.80;;;;;;5036523;28;20471;-63